Time;durP1;ratioP1;P1;durP2;ratioP2;P2;SDS_P1;SDS_P2;PMS_P1;PMS_P2;Temp;Humidity;BMP_temperature;BMP_pressure;BME280_temperature;BME280_humidity;BME280_pressure;Samples;Min_cycle;Max_cycle;Signal;HPM_P1;HPM_P2
2023/10/22 00:01:06;;;;;;;;;;;;;;;22.64;49.10;100475.91;7393451;19;1656;-41
2023/10/22 00:03:34;;;;;;;;;;;;;;;22.58;49.29;100466.66;7394312;19;1977;-40
2023/10/22 00:06:02;;;;;;;;;;;;;;;22.60;49.23;100475.41;7391825;19;1913;-41
2023/10/22 00:08:30;;;;;;;;;;;;;;;22.59;49.35;100468.31;7393399;19;1471;-41
2023/10/22 00:10:59;;;;;;;;;;;;;;;22.60;49.29;100466.47;7394560;19;1486;-41
2023/10/22 00:13:27;;;;;;;;;;;;;;;22.60;49.46;100474.53;7392968;19;1380;-41
2023/10/22 00:15:59;;;;;;;;;;;;;;;22.60;49.43;100464.63;7394112;19;1388;-41
2023/10/22 00:18:27;;;;;;;;;;;;;;;22.63;49.19;100472.38;7393835;19;1355;-41
2023/10/22 00:20:55;;;;;;;;;;;;;;;22.55;49.35;100461.59;7394222;19;1573;-40
2023/10/22 00:23:23;;;;;;;;;;;;;;;22.57;49.52;100470.34;7393709;19;1772;-40
2023/10/22 00:25:52;;;;;;;;;;;;;;;22.65;49.33;100474.91;7393341;19;1841;-40
2023/10/22 00:28:20;;;;;;;;;;;;;;;22.63;49.23;100471.53;7394521;19;1842;-40
2023/10/22 00:30:49;;;;;;;;;;;;;;;22.57;49.44;100469.50;7395236;19;1569;-41
2023/10/22 00:33:20;;;;;;;;;;;;;;;22.63;49.21;100464.28;7395034;19;1871;-41
2023/10/22 00:35:56;;;;;;;;;;;;;;;22.61;49.38;100465.47;7395509;19;1740;-41
2023/10/22 00:38:24;;;;;;;;;;;;;;;22.68;49.27;100471.03;7390414;19;2528;-40
2023/10/22 00:40:52;;;;;;;;;;;;;;;22.59;49.32;100471.03;7394559;19;1568;-40
2023/10/22 00:43:21;;;;;;;;;;;;;;;22.59;49.41;100462.94;7394088;19;1624;-41
2023/10/22 00:45:50;;;;;;;;;;;;;;;22.60;49.45;100467.34;7392404;19;1849;-40
2023/10/22 00:48:22;;;;;;;;;;;;;;;22.62;49.41;100462.63;7393696;19;1430;-41
2023/10/22 00:50:51;;;;;;;;;;;;;;;22.62;49.21;100465.31;7393693;19;1641;-41
2023/10/22 00:53:20;;;;;;;;;;;;;;;22.61;49.28;100460.06;7393757;19;1399;-40
2023/10/22 00:55:49;;;;;;;;;;;;;;;22.58;49.29;100450.47;7395186;19;1926;-41
2023/10/22 00:58:18;;;;;;;;;;;;;;;22.58;49.37;100446.94;7394156;19;2051;-41
2023/10/22 01:00:47;;;;;;;;;;;;;;;22.64;49.34;100465.13;7394074;19;1822;-40
2023/10/22 01:03:16;;;;;;;;;;;;;;;22.61;49.47;100450.13;7393360;19;1708;-41
2023/10/22 01:05:47;;;;;;;;;;;;;;;22.58;49.46;100466.66;7391058;19;1854;-40
2023/10/22 01:08:16;;;;;;;;;;;;;;;22.66;49.19;100478.44;7393539;19;1625;-41
2023/10/22 01:10:44;;;;;;;;;;;;;;;22.61;49.28;100471.69;7393091;19;1810;-41
2023/10/22 01:13:12;;;;;;;;;;;;;;;22.56;49.52;100452.50;7392451;19;1614;-41
2023/10/22 01:15:40;;;;;;;;;;;;;;;22.60;49.38;100464.63;7393305;19;1716;-41
2023/10/22 01:18:09;;;;;;;;;;;;;;;22.59;49.27;100468.31;7391507;19;1652;-40
2023/10/22 01:20:37;;;;;;;;;;;;;;;22.57;49.35;100494.59;7393216;19;1394;-40
2023/10/22 01:23:28;;;;;;;;;;;;;;;22.60;49.47;100504.19;7391285;19;1549;-41
2023/10/22 01:25:59;;;;;;;;;;;;;;;22.57;49.37;100486.50;7392789;19;1874;-40
2023/10/22 01:28:28;;;;;;;;;;;;;;;22.61;49.35;100495.13;7392406;19;1839;-40
2023/10/22 01:30:58;;;;;;;;;;;;;;;22.62;49.47;100513.81;7391108;19;1786;-40
2023/10/22 01:33:26;;;;;;;;;;;;;;;22.66;49.39;100526.94;7393101;19;1252;-41
2023/10/22 01:35:54;;;;;;;;;;;;;;;22.60;49.43;100515.84;7392739;19;1467;-40
2023/10/22 01:38:23;;;;;;;;;;;;;;;22.59;49.30;100516.84;7393284;19;1815;-41
2023/10/22 01:40:51;;;;;;;;;;;;;;;22.58;49.51;100512.47;7393174;19;1905;-41
2023/10/22 01:43:22;;;;;;;;;;;;;;;22.59;49.43;100533.00;7392074;19;1893;-40
2023/10/22 01:45:51;;;;;;;;;;;;;;;22.58;49.58;100525.94;7389935;19;1847;-40
2023/10/22 01:48:19;;;;;;;;;;;;;;;22.54;49.69;100545.28;7391901;19;1826;-40
2023/10/22 01:50:47;;;;;;;;;;;;;;;22.65;49.25;100536.91;7391035;19;1551;-40
2023/10/22 01:53:15;;;;;;;;;;;;;;;22.56;49.64;100532.47;7392119;19;1418;-41
2023/10/22 01:55:44;;;;;;;;;;;;;;;22.56;49.61;100544.13;7391142;19;1716;-40
2023/10/22 01:58:12;;;;;;;;;;;;;;;22.58;49.52;100552.03;7392342;19;1478;-41
2023/10/22 02:00:43;;;;;;;;;;;;;;;22.55;49.46;100542.44;7390531;19;1427;-40
2023/10/22 02:03:11;;;;;;;;;;;;;;;22.55;49.47;100531.66;7390885;19;1478;-40
2023/10/22 02:05:39;;;;;;;;;;;;;;;22.56;49.42;100543.25;7390603;19;1841;-40
2023/10/22 02:08:08;;;;;;;;;;;;;;;22.44;49.69;100535.50;7391098;19;1495;-41
2023/10/22 02:10:37;;;;;;;;;;;;;;;22.49;49.81;100536.88;7391166;19;1454;-40
2023/10/22 02:13:05;;;;;;;;;;;;;;;22.50;50.28;100538.53;7389904;19;1727;-41
2023/10/22 02:15:33;;;;;;;;;;;;;;;22.55;50.18;100555.06;7394700;19;1557;-41
2023/10/22 02:18:04;;;;;;;;;;;;;;;22.50;49.94;100546.63;7397475;19;1883;-41
2023/10/22 02:20:33;;;;;;;;;;;;;;;22.49;49.88;100553.88;7398722;19;1583;-40
2023/10/22 02:23:02;;;;;;;;;;;;;;;22.54;50.00;100550.66;7398980;19;1553;-41
2023/10/22 02:25:30;;;;;;;;;;;;;;;22.56;49.70;100559.44;7398183;19;1854;-41
2023/10/22 02:27:59;;;;;;;;;;;;;;;22.48;50.06;100557.56;7398884;19;1594;-41
2023/10/22 02:30:27;;;;;;;;;;;;;;;22.53;49.92;100582.19;7398932;19;1521;-41
2023/10/22 02:32:56;;;;;;;;;;;;;;;22.49;50.04;100591.59;7399132;19;1474;-40
2023/10/22 02:35:27;;;;;;;;;;;;;;;22.51;49.81;100597.66;7394928;19;1881;-41
2023/10/22 02:37:55;;;;;;;;;;;;;;;22.46;50.03;100580.28;7397421;19;1490;-41
2023/10/22 02:40:23;;;;;;;;;;;;;;;22.47;50.02;100592.78;7399099;19;1760;-41
2023/10/22 02:42:52;;;;;;;;;;;;;;;22.42;50.12;100621.06;7397745;19;1425;-41
2023/10/22 02:45:20;;;;;;;;;;;;;;;22.41;50.21;100611.25;7396926;19;1871;-41
2023/10/22 02:47:48;;;;;;;;;;;;;;;22.40;50.20;100592.56;7398052;19;1562;-41
2023/10/22 02:50:17;;;;;;;;;;;;;;;22.40;50.29;100616.81;7397284;19;1843;-40
2023/10/22 02:52:48;;;;;;;;;;;;;;;22.40;50.19;100598.81;7383286;19;1480;-40
2023/10/22 02:55:16;;;;;;;;;;;;;;;22.39;50.16;100607.06;7396056;19;1791;-41
2023/10/22 02:57:44;;;;;;;;;;;;;;;22.40;50.14;100603.34;7396768;19;1473;-41
2023/10/22 03:00:13;;;;;;;;;;;;;;;22.39;50.38;100601.66;7396864;19;1541;-40
2023/10/22 03:02:42;;;;;;;;;;;;;;;22.34;50.47;100577.91;7397211;19;1388;-40
2023/10/22 03:05:10;;;;;;;;;;;;;;;22.35;50.22;100603.00;7395709;19;1871;-41
2023/10/22 03:07:39;;;;;;;;;;;;;;;22.37;50.11;100595.59;7396577;19;1601;-41
2023/10/22 03:10:10;;;;;;;;;;;;;;;22.35;50.32;100613.78;7397006;19;1445;-40
2023/10/22 03:12:38;;;;;;;;;;;;;;;22.33;50.33;100622.00;7396396;19;1420;-41
2023/10/22 03:15:07;;;;;;;;;;;;;;;22.35;50.22;100613.78;7394992;19;1582;-41
2023/10/22 03:17:36;;;;;;;;;;;;;;;22.36;50.38;100613.63;7397653;19;1514;-40
2023/10/22 03:20:05;;;;;;;;;;;;;;;22.35;50.24;100616.47;7397580;19;1507;-41
2023/10/22 03:22:34;;;;;;;;;;;;;;;22.29;50.46;100628.72;7398334;19;1610;-41
2023/10/22 03:25:07;;;;;;;;;;;;;;;22.32;50.30;100623.03;7396943;19;1901;-41
2023/10/22 03:27:38;;;;;;;;;;;;;;;22.33;50.27;100640.03;7393940;19;1491;-41
2023/10/22 03:30:10;;;;;;;;;;;;;;;22.30;50.26;100640.34;7397488;19;1534;-40
2023/10/22 03:32:38;;;;;;;;;;;;;;;22.36;50.14;100651.34;7396870;19;1779;-41
2023/10/22 03:35:08;;;;;;;;;;;;;;;22.40;50.37;100651.84;7394872;19;1617;-40
2023/10/22 03:37:36;;;;;;;;;;;;;;;22.34;50.27;100650.66;7393067;19;1384;-41
2023/10/22 03:40:04;;;;;;;;;;;;;;;22.31;50.56;100642.88;7396189;19;1368;-40
2023/10/22 03:42:33;;;;;;;;;;;;;;;22.33;50.60;100640.03;7395534;19;1557;-40
2023/10/22 03:45:04;;;;;;;;;;;;;;;22.31;50.36;100642.03;7393848;19;1851;-40
2023/10/22 03:47:32;;;;;;;;;;;;;;;22.32;50.33;100641.00;7394525;19;1561;-41
2023/10/22 03:50:00;;;;;;;;;;;;;;;22.31;50.53;100642.03;7395636;19;1483;-41
2023/10/22 03:52:29;;;;;;;;;;;;;;;22.28;50.41;100647.72;7380538;19;1197;-40
2023/10/22 03:54:57;;;;;;;;;;;;;;;22.28;50.38;100653.97;7394578;19;1415;-41
2023/10/22 03:57:26;;;;;;;;;;;;;;;22.29;50.56;100649.44;7395016;19;1470;-40
2023/10/22 03:59:54;;;;;;;;;;;;;;;22.24;50.70;100653.47;7393400;19;1504;-41
2023/10/22 04:02:25;;;;;;;;;;;;;;;22.27;50.57;100651.44;7393161;19;1422;-40
2023/10/22 04:04:54;;;;;;;;;;;;;;;22.23;50.68;100642.81;7394165;19;1534;-41
2023/10/22 04:07:22;;;;;;;;;;;;;;;22.22;50.53;100633.88;7388622;19;1853;-41
2023/10/22 04:09:50;;;;;;;;;;;;;;;22.20;50.65;100643.97;7389702;19;1571;-41
2023/10/22 04:12:19;;;;;;;;;;;;;;;22.24;50.43;100631.91;7391695;19;1498;-41
2023/10/22 04:14:47;;;;;;;;;;;;;;;22.21;50.60;100621.41;7393901;19;1567;-41
2023/10/22 04:17:15;;;;;;;;;;;;;;;22.20;50.66;100608.97;7394135;19;1514;-40
2023/10/22 04:19:46;;;;;;;;;;;;;;;22.19;50.60;100625.28;7394291;19;1500;-41
2023/10/22 04:22:15;;;;;;;;;;;;;;;22.19;50.48;100630.66;7393818;19;1486;-40
2023/10/22 04:24:45;;;;;;;;;;;;;;;22.24;50.65;100631.03;7390900;19;1553;-41
2023/10/22 04:27:13;;;;;;;;;;;;;;;22.21;50.73;100648.34;7389727;19;1849;-41
2023/10/22 04:29:43;;;;;;;;;;;;;;;22.21;50.52;100648.34;7393313;19;1828;-40
2023/10/22 04:32:11;;;;;;;;;;;;;;;22.22;50.65;100655.44;7392269;19;1475;-40
2023/10/22 04:34:39;;;;;;;;;;;;;;;22.22;50.71;100636.56;7391751;19;1388;-41
2023/10/22 04:37:11;;;;;;;;;;;;;;;22.21;50.44;100664.50;7394902;19;1637;-41
2023/10/22 04:39:41;;;;;;;;;;;;;;;22.22;50.66;100658.13;7391820;19;1469;-40
2023/10/22 04:42:09;;;;;;;;;;;;;;;22.19;50.73;100646.81;7392890;19;1444;-41
2023/10/22 04:44:38;;;;;;;;;;;;;;;22.22;50.71;100647.34;7394088;19;1824;-40
2023/10/22 04:47:06;;;;;;;;;;;;;;;22.29;50.40;100641.34;7392380;19;1852;-41
2023/10/22 04:49:35;;;;;;;;;;;;;;;22.39;50.21;100640.22;7392355;19;1890;-40
2023/10/22 04:52:03;;;;;;;;;;;;;;;22.46;50.31;100640.41;7378533;19;1736;-41
2023/10/22 04:54:34;;;;;;;;;;;;;;;22.52;50.23;100628.13;7393459;19;1442;-41
2023/10/22 04:57:02;;;;;;;;;;;;;;;22.53;50.29;100630.69;7392790;19;1557;-41
2023/10/22 04:59:31;;;;;;;;;;;;;;;22.51;50.28;100627.31;7392658;19;1546;-40
2023/10/22 05:02:00;;;;;;;;;;;;;;;22.53;50.53;100637.94;7391602;19;1491;-40
2023/10/22 05:04:29;;;;;;;;;;;;;;;22.49;50.63;100650.03;7392984;19;1550;-40
2023/10/22 05:06:57;;;;;;;;;;;;;;;22.50;50.66;100649.88;7389092;19;1852;-41
2023/10/22 05:09:26;;;;;;;;;;;;;;;22.57;50.62;100668.94;7392458;19;1546;-40
2023/10/22 05:11:56;;;;;;;;;;;;;;;22.57;50.64;100659.00;7393337;19;1588;-41
2023/10/22 05:14:25;;;;;;;;;;;;;;;22.57;50.57;100663.53;7391089;19;1232;-41
2023/10/22 05:16:55;;;;;;;;;;;;;;;22.54;50.78;100662.03;7392109;19;1933;-40
2023/10/22 05:19:23;;;;;;;;;;;;;;;22.59;50.66;100661.53;7392384;19;1816;-41
2023/10/22 05:21:51;;;;;;;;;;;;;;;22.56;50.66;100654.63;6869442;19;9999564;-41
2023/10/22 05:24:20;;;;;;;;;;;;;;;22.58;50.84;100649.91;7384960;19;1845;-41
2023/10/22 05:26:48;;;;;;;;;;;;;;;22.52;50.78;100623.63;7383042;19;1858;-40
2023/10/22 05:29:19;;;;;;;;;;;;;;;22.56;50.92;100626.81;7385755;19;1463;-41
2023/10/22 05:31:47;;;;;;;;;;;;;;;22.51;50.81;100611.13;7386021;19;1447;-41
2023/10/22 05:34:16;;;;;;;;;;;;;;;22.58;50.68;100616.72;7385361;19;1565;-41
2023/10/22 05:36:44;;;;;;;;;;;;;;;22.57;50.86;100610.47;7385869;19;1485;-41
2023/10/22 05:39:12;;;;;;;;;;;;;;;22.53;51.00;100614.50;7384389;19;1716;-40
2023/10/22 05:41:41;;;;;;;;;;;;;;;22.56;51.02;100608.81;7386517;19;1840;-45
2023/10/22 05:44:10;;;;;;;;;;;;;;;22.49;51.17;100610.47;7386753;19;1728;-40
2023/10/22 05:46:41;;;;;;;;;;;;;;;22.44;51.34;100637.03;7385869;19;1854;-41
2023/10/22 05:49:11;;;;;;;;;;;;;;;22.47;51.52;100633.19;7381744;19;2514;-40
2023/10/22 05:51:40;;;;;;;;;;;;;;;22.40;51.35;100638.34;7382448;19;1637;-40
2023/10/22 05:54:08;;;;;;;;;;;;;;;22.40;51.60;100636.53;7368957;19;1565;-41
2023/10/22 05:56:36;;;;;;;;;;;;;;;22.43;51.52;100646.97;7383540;19;1470;-41
2023/10/22 05:59:08;;;;;;;;;;;;;;;22.39;51.72;100637.53;7385407;19;1538;-41
2023/10/22 06:01:38;;;;;;;;;;;;;;;22.42;51.61;100633.66;7385502;19;1843;-41
2023/10/22 06:04:10;;;;;;;;;;;;;;;22.40;51.72;100638.34;7385327;19;1578;-41
2023/10/22 06:06:38;;;;;;;;;;;;;;;22.41;51.70;100610.44;7385087;19;1859;-41
2023/10/22 06:09:07;;;;;;;;;;;;;;;22.38;51.84;100611.59;7382805;19;1493;-41
2023/10/22 06:11:36;;;;;;;;;;;;;;;22.37;51.53;100600.97;7381692;19;1891;-41
2023/10/22 06:14:05;;;;;;;;;;;;;;;22.39;51.48;100599.81;7381652;19;1771;-41
2023/10/22 06:16:33;;;;;;;;;;;;;;;22.41;51.59;100584.31;7384101;19;1818;-41
2023/10/22 06:19:02;;;;;;;;;;;;;;;22.40;51.76;100577.25;7381478;19;1832;-41
2023/10/22 06:21:32;;;;;;;;;;;;;;;22.42;51.61;100577.06;7382317;19;2235;-41
2023/10/22 06:24:01;;;;;;;;;;;;;;;22.40;51.83;100579.09;7384636;19;1531;-41
2023/10/22 06:26:29;;;;;;;;;;;;;;;22.45;51.43;100579.44;7384893;19;1844;-40
2023/10/22 06:28:58;;;;;;;;;;;;;;;22.47;51.65;100560.44;7385133;19;1621;-41
2023/10/22 06:31:26;;;;;;;;;;;;;;;22.44;51.53;100558.88;7383476;19;1416;-41
2023/10/22 06:33:54;;;;;;;;;;;;;;;22.50;51.48;100598.69;7383304;19;1538;-41
2023/10/22 06:36:24;;;;;;;;;;;;;;;22.51;51.84;100562.63;7384119;19;1458;-41
2023/10/22 06:38:55;;;;;;;;;;;;;;;22.50;52.96;100579.81;7384655;19;1756;-40
2023/10/22 06:41:24;;;;;;;;;;;;;;;22.54;52.55;100573.09;7385437;19;1572;-41
2023/10/22 06:43:53;;;;;;;;;;;;;;;22.58;51.98;100574.44;7385345;19;1783;-41
2023/10/22 06:46:21;;;;;;;;;;;;;;;22.62;51.68;100574.94;7384224;19;1841;-41
2023/10/22 06:48:50;;;;;;;;;;;;;;;22.70;51.62;100582.22;7384736;19;1924;-41
2023/10/22 06:51:19;;;;;;;;;;;;;;;22.70;51.56;100557.97;7385408;19;1518;-41
2023/10/22 06:53:47;;;;;;;;;;;;;;;22.68;51.52;100568.06;7367583;19;1588;-42
2023/10/22 06:56:19;;;;;;;;;;;;;;;22.64;51.78;100565.72;7383363;19;1513;-41
2023/10/22 06:58:47;;;;;;;;;;;;;;;22.67;51.74;100563.69;7386024;19;1511;-40
2023/10/22 07:01:16;;;;;;;;;;;;;;;22.74;51.41;100565.56;7385655;19;1449;-41
2023/10/22 07:03:45;;;;;;;;;;;;;;;22.74;51.59;100540.44;7393830;19;1255;-41
2023/10/22 07:06:13;;;;;;;;;;;;;;;22.67;51.43;100566.38;7391930;19;1831;-40
2023/10/22 07:08:43;;;;;;;;;;;;;;;22.73;51.54;100593.53;7389962;19;1720;-41
2023/10/22 07:11:11;;;;;;;;;;;;;;;22.60;51.78;100587.75;7391956;19;1731;-41
2023/10/22 07:13:42;;;;;;;;;;;;;;;22.58;51.67;100605.94;7391740;19;1597;-41
2023/10/22 07:16:10;;;;;;;;;;;;;;;22.39;52.14;100642.91;7391110;19;1493;-41
2023/10/22 07:18:39;;;;;;;;;;;;;;;22.35;52.55;100640.72;7389997;19;1518;-41
2023/10/22 07:21:07;;;;;;;;;;;;;;;22.33;52.40;100640.03;7389216;19;2360;-41
2023/10/22 07:23:35;;;;;;;;;;;;;;;22.29;52.60;100638.66;7389427;19;1585;-45
2023/10/22 07:26:04;;;;;;;;;;;;;;;22.35;52.55;100641.53;7392270;19;1570;-41
2023/10/22 07:28:32;;;;;;;;;;;;;;;22.32;52.62;100639.19;7387852;19;1855;-41
2023/10/22 07:31:03;;;;;;;;;;;;;;;22.22;52.56;100641.97;7391140;19;1296;-40
2023/10/22 07:33:31;;;;;;;;;;;;;;;22.15;52.80;100638.22;7390547;19;1992;-44
2023/10/22 07:36:01;;;;;;;;;;;;;;;22.19;53.01;100638.75;7390306;19;1736;-41
2023/10/22 07:38:31;;;;;;;;;;;;;;;22.31;52.48;100632.09;7390388;19;1387;-41
2023/10/22 07:41:00;;;;;;;;;;;;;;;22.15;53.10;100626.59;7389764;19;1448;-41
2023/10/22 07:43:29;;;;;;;;;;;;;;;22.29;52.65;100627.88;7390130;19;1489;-41
2023/10/22 07:46:04;;;;;;;;;;;;;;;22.40;52.25;100614.09;7387641;19;1736;-40
2023/10/22 07:48:33;;;;;;;;;;;;;;;22.33;52.82;100629.25;7387807;19;1863;-40
2023/10/22 07:51:09;;;;;;;;;;;;;;;22.20;53.02;100617.03;7390226;19;1606;-41
2023/10/22 07:53:38;;;;;;;;;;;;;;;22.16;53.19;100612.97;7375496;19;1751;-41
2023/10/22 07:56:06;;;;;;;;;;;;;;;22.22;53.18;100635.72;7389774;19;1479;-41
2023/10/22 07:58:35;;;;;;;;;;;;;;;22.21;53.17;100625.97;7389961;19;1666;-42
2023/10/22 08:01:06;;;;;;;;;;;;;;;22.23;53.07;100614.00;7390763;19;1535;-41
2023/10/22 08:03:35;;;;;;;;;;;;;;;22.18;53.01;100594.81;7390768;19;1818;-41
2023/10/22 08:06:04;;;;;;;;;;;;;;;22.21;53.18;100594.47;7389946;19;1819;-41
2023/10/22 08:08:32;;;;;;;;;;;;;;;22.28;52.90;100642.34;7384572;19;1858;-41
2023/10/22 08:11:01;;;;;;;;;;;;;;;22.34;52.60;100610.25;7392411;19;1450;-41
2023/10/22 08:13:29;;;;;;;;;;;;;;;;;;7389989;19;1801;-41
2023/10/22 08:15:57;;;;;;;;;;;;;;;22.34;52.50;100617.44;7391870;19;1344;-41
2023/10/22 08:18:28;;;;;;;;;;;;;;;22.39;52.52;100620.53;7392653;19;1498;-41
2023/10/22 08:20:57;;;;;;;;;;;;;;;22.42;52.71;100628.25;7394808;19;1498;-41
2023/10/22 08:23:25;;;;;;;;;;;;;;;22.49;52.03;100629.31;7393017;19;1447;-40
2023/10/22 08:25:54;;;;;;;;;;;;;;;22.56;51.92;100614.19;7396268;19;1838;-41
2023/10/22 08:28:22;;;;;;;;;;;;;;;22.58;51.31;100609.50;7393174;19;2029;-41
2023/10/22 08:30:54;;;;;;;;;;;;;;;22.64;51.42;100616.91;7392683;19;1511;-41
2023/10/22 08:33:22;;;;;;;;;;;;;;;22.73;50.99;100611.56;7393737;19;1477;-43
2023/10/22 08:35:53;;;;;;;;;;;;;;;22.76;51.33;100625.56;7395044;19;1399;-41
2023/10/22 08:38:21;;;;;;;;;;;;;;;22.72;51.33;100644.91;7392438;19;1585;-41
2023/10/22 08:40:53;;;;;;;;;;;;;;;22.74;51.27;100622.19;7394846;19;1507;-41
2023/10/22 08:43:21;;;;;;;;;;;;;;;22.74;51.49;100630.25;7395242;19;1543;-40
2023/10/22 08:45:50;;;;;;;;;;;;;;;22.84;51.27;100619.34;7395391;19;1546;-40
2023/10/22 08:48:20;;;;;;;;;;;;;;;23.02;50.77;100612.00;7392196;19;1860;-41
2023/10/22 08:50:49;;;;;;;;;;;;;;;23.02;51.11;100620.09;7390653;19;1512;-43
2023/10/22 08:53:20;;;;;;;;;;;;;;;23.16;50.75;100624.00;7381027;19;1447;-45
2023/10/22 08:55:50;;;;;;;;;;;;;;;23.00;51.12;100619.38;7395445;19;1572;-43
2023/10/22 08:58:19;;;;;;;;;;;;;;;23.20;50.86;100605.63;7394108;19;1910;-43
2023/10/22 09:00:48;;;;;;;;;;;;;;;23.16;52.12;100621.28;7393135;19;1430;-43
2023/10/22 09:03:14;;;;;;;;;;;;;;;23.26;51.54;100610.34;7395266;19;1602;-41
2023/10/22 09:05:43;;;;;;;;;;;;;;;23.35;50.92;100608.47;7394361;19;1731;-41
2023/10/22 09:08:11;;;;;;;;;;;;;;;23.45;50.58;100613.72;7392918;19;1840;-42
2023/10/22 09:10:43;;;;;;;;;;;;;;;23.53;50.30;100608.31;7391310;19;1895;-41
2023/10/22 09:13:12;;;;;;;;;;;;;;;23.54;50.29;100610.00;7393924;19;1668;-42
2023/10/22 09:15:41;;;;;;;;;;;;;;;23.71;49.81;100618.94;7393522;19;1855;-41
2023/10/22 09:18:09;;;;;;;;;;;;;;;23.79;49.60;100598.19;7391900;19;1609;-41
2023/10/22 09:20:38;;;;;;;;;;;;;;;23.71;49.85;100592.75;7392786;19;1478;-41
2023/10/22 09:23:17;;;;;;;;;;;;;;;23.46;51.33;100588.41;7393140;19;1388;-41
2023/10/22 09:25:48;;;;;;;;;;;;;;;23.39;51.33;100594.47;7389653;19;2218;-41
2023/10/22 09:28:15;;;;;;;;;;;;;;;23.29;51.34;100566.81;7391771;19;1850;-41
2023/10/22 09:30:43;;;;;;;;;;;;;;;23.34;50.81;100569.03;7393912;19;1632;-41
2023/10/22 09:33:12;;;;;;;;;;;;;;;23.49;50.57;100572.72;7393996;19;1728;-41
2023/10/22 09:35:40;;;;;;;;;;;;;;;23.41;50.11;100559.22;7393379;19;1759;-41
2023/10/22 09:38:10;;;;;;;;;;;;;;;23.49;49.76;100564.63;7392192;19;1830;-41
2023/10/22 09:40:38;;;;;;;;;;;;;;;23.33;49.95;100551.16;7390897;19;1487;-41
2023/10/22 09:43:09;;;;;;;;;;;;;;;23.42;49.35;100540.19;7387610;19;1823;-41
2023/10/22 09:45:39;;;;;;;;;;;;;;;23.30;49.57;100535.28;7385920;19;1384;-41
2023/10/22 09:48:12;;;;;;;;;;;;;;;23.32;49.92;100542.22;7386880;19;1882;-38
2023/10/22 09:50:46;;;;;;;;;;;;;;;23.25;50.14;100543.06;7384582;19;1383;-38
2023/10/22 09:53:17;;;;;;;;;;;;;;;23.22;50.03;100533.47;7385501;19;1503;-39
2023/10/22 09:55:48;;;;;;;;;;;;;;;23.14;50.19;100531.59;7374084;19;1835;-38
2023/10/22 09:58:22;;;;;;;;;;;;;;;23.11;49.85;100536.47;7390938;19;1586;-39
2023/10/22 10:00:50;;;;;;;;;;;;;;;23.09;49.90;100522.31;7388607;19;1821;-39
2023/10/22 10:03:19;;;;;;;;;;;;;;;23.15;49.89;100529.75;7388812;19;1454;-45
2023/10/22 10:05:48;;;;;;;;;;;;;;;23.06;49.96;100523.50;7388482;19;1399;-40
2023/10/22 10:08:17;;;;;;;;;;;;;;;23.11;49.87;100531.91;7385783;19;1869;-40
2023/10/22 10:10:46;;;;;;;;;;;;;;;23.10;49.65;100508.69;7387016;19;1742;-40
2023/10/22 10:13:15;;;;;;;;;;;;;;;23.08;49.64;100509.84;7387450;19;1485;-40
2023/10/22 10:15:46;;;;;;;;;;;;;;;23.10;49.49;100518.59;7389268;19;1048;-39
2023/10/22 10:18:14;;;;;;;;;;;;;;;23.11;49.70;100509.50;7387755;19;1842;-39
2023/10/22 10:20:45;;;;;;;;;;;;;;;23.11;49.43;100513.03;7387141;19;1588;-39
2023/10/22 10:23:19;;;;;;;;;;;;;;;23.08;49.38;100504.44;7392644;19;1736;-39
2023/10/22 10:25:47;;;;;;;;;;;;;;;23.03;49.40;100505.78;7394043;19;1759;-41
2023/10/22 10:28:16;;;;;;;;;;;;;;;22.97;49.13;100476.78;7391335;19;1854;-40
2023/10/22 10:30:47;;;;;;;;;;;;;;;23.00;49.01;100492.63;7392765;19;1719;-39
2023/10/22 10:33:15;;;;;;;;;;;;;;;22.95;49.21;100499.53;7392998;19;1901;-39
2023/10/22 10:35:47;;;;;;;;;;;;;;;22.95;48.97;100497.66;7391539;19;1723;-39
2023/10/22 10:38:27;;;;;;;;;;;;;;;22.86;49.47;100504.09;7399030;19;1815;-40
2023/10/22 10:40:56;;;;;;;;;;;;;;;22.83;48.87;100486.38;7396647;19;1939;-40
2023/10/22 10:43:39;;;;;;;;;;;;;;;22.79;49.33;100493.09;7399479;19;1569;-40
2023/10/22 10:46:22;;;;;;;;;;;;;;;22.76;49.11;100479.13;7398528;19;1904;-41
2023/10/22 10:48:53;;;;;;;;;;;;;;;22.77;49.33;100472.72;7397934;19;1863;-41
2023/10/22 10:51:22;;;;;;;;;;;;;;;22.80;49.14;100483.16;7395001;19;1772;-46
2023/10/22 10:54:07;;;;;;;;;;;;;;;22.61;49.49;100447.44;7381580;19;1496;-42
2023/10/22 10:56:51;;;;;;;;;;;;;;;22.93;49.02;100475.41;7398405;19;1501;-40
2023/10/22 10:59:30;;;;;;;;;;;;;;;22.87;48.84;100473.41;7399414;19;1676;-41
2023/10/22 11:02:16;;;;;;;;;;;;;;;22.88;48.58;100472.41;7395522;19;1744;-41
2023/10/22 11:04:49;;;;;;;;;;;;;;;22.83;49.14;100467.50;7398105;19;1802;-41
2023/10/22 11:07:17;;;;;;;;;;;;;;;22.85;48.34;100475.44;7398801;19;1535;-40
2023/10/22 11:09:46;;;;;;;;;;;;;;;22.90;48.51;100462.28;7396418;19;1855;-41
2023/10/22 11:12:14;;;;;;;;;;;;;;;22.85;48.49;100480.81;7397310;19;1785;-40
2023/10/22 11:14:42;;;;;;;;;;;;;;;22.80;48.80;100464.28;7399288;19;1746;-42
2023/10/22 11:17:11;;;;;;;;;;;;;;;22.77;48.66;100453.84;7397209;19;1785;-40
2023/10/22 11:19:39;;;;;;;;;;;;;;;22.82;48.30;100462.31;7397331;19;1890;-41
2023/10/22 11:22:12;;;;;;;;;;;;;;;22.86;48.36;100465.47;7395179;19;1906;-41
2023/10/22 11:24:41;;;;;;;;;;;;;;;22.78;48.35;100469.88;7398882;19;1838;-41
2023/10/22 11:27:09;;;;;;;;;;;;;;;22.70;48.40;100474.41;7397392;19;1815;-41
2023/10/22 11:29:41;;;;;;;;;;;;;;;22.67;48.54;100453.19;7395815;19;1841;-41
2023/10/22 11:32:13;;;;;;;;;;;;;;;22.62;48.38;100449.13;7394080;19;2079;-41
2023/10/22 11:34:49;;;;;;;;;;;;;;;22.60;48.59;100463.78;7397032;19;1770;-41
2023/10/22 11:37:20;;;;;;;;;;;;;;;22.60;48.69;100467.34;7397700;19;1427;-41
2023/10/22 11:39:48;;;;;;;;;;;;;;;22.55;48.63;100456.19;7398124;19;1732;-41
2023/10/22 11:42:17;;;;;;;;;;;;;;;22.55;48.79;100458.88;7398339;19;1541;-41
2023/10/22 11:44:46;;;;;;;;;;;;;;;22.56;48.68;100467.81;7398937;19;1724;-41
2023/10/22 11:47:30;;;;;;;;;;;;;;;22.58;48.62;100465.78;7395362;19;1948;-39
2023/10/22 11:50:01;;;;;;;;;;;;;;;22.58;48.54;100466.66;7392003;19;1844;-39
2023/10/22 11:52:47;;;;;;;;;;;;;;;22.59;48.79;100459.41;7395031;19;1505;-39
2023/10/22 11:55:18;;;;;;;;;;;;;;;22.58;48.34;100461.25;7380472;19;1901;-39
2023/10/22 11:57:48;;;;;;;;;;;;;;;22.52;48.73;100461.94;7397105;19;1853;-39
2023/10/22 12:00:17;;;;;;;;;;;;;;;22.60;48.34;100472.72;7394148;19;1832;-39
2023/10/22 12:02:45;;;;;;;;;;;;;;;22.55;48.64;100466.97;7394343;19;1481;-39
2023/10/22 12:05:14;;;;;;;;;;;;;;;22.59;48.16;100462.09;7395015;19;1497;-39
2023/10/22 12:07:42;;;;;;;;;;;;;;;22.58;48.39;100472.03;7394372;19;1752;-40
2023/10/22 12:10:12;;;;;;;;;;;;;;;22.58;48.34;100473.88;7394149;19;1851;-39
2023/10/22 12:12:43;;;;;;;;;;;;;;;22.58;48.36;100476.56;7393212;19;1462;-39
2023/10/22 12:15:12;;;;;;;;;;;;;;;22.54;48.58;100484.16;7396086;19;1296;-40
2023/10/22 12:17:41;;;;;;;;;;;;;;;22.60;48.19;100485.31;7394258;19;1685;-42
2023/10/22 12:20:09;;;;;;;;;;;;;;;22.59;48.09;100489.06;7396228;19;1386;-40
2023/10/22 12:22:38;;;;;;;;;;;;;;;22.59;47.90;100473.72;7396893;19;1028;-40
2023/10/22 12:25:07;;;;;;;;;;;;;;;22.62;47.77;100473.41;7395982;19;1498;-40
2023/10/22 12:27:35;;;;;;;;;;;;;;;22.64;47.79;100484.84;7395538;19;1840;-40
2023/10/22 12:30:07;;;;;;;;;;;;;;;22.66;47.43;100489.22;7392496;19;1881;-39
2023/10/22 12:32:35;;;;;;;;;;;;;;;22.70;47.48;100469.00;7395467;19;1741;-40
2023/10/22 12:35:04;;;;;;;;;;;;;;;22.67;47.48;100480.97;7395839;19;1519;-40
2023/10/22 12:37:33;;;;;;;;;;;;;;;22.65;47.96;100488.38;7394698;19;1720;-40
2023/10/22 12:40:01;;;;;;;;;;;;;;;22.73;47.98;100474.91;7395084;19;1557;-40
2023/10/22 12:42:30;;;;;;;;;;;;;;;22.73;48.27;100482.16;7393159;19;1741;-41
2023/10/22 12:44:58;;;;;;;;;;;;;;;22.67;48.08;100477.44;7395282;19;1482;-40
2023/10/22 12:47:29;;;;;;;;;;;;;;;22.69;48.08;100465.47;7396345;19;1732;-40
2023/10/22 12:49:58;;;;;;;;;;;;;;;22.75;47.50;100461.28;7393252;19;1860;-40
2023/10/22 12:52:26;;;;;;;;;;;;;;;22.75;47.93;100464.81;7393410;19;1964;-40
2023/10/22 12:54:55;;;;;;;;;;;;;;;22.75;47.50;100469.34;7378073;19;1800;-40
2023/10/22 12:57:24;;;;;;;;;;;;;;;22.77;47.63;100478.13;7394978;19;1822;-41
2023/10/22 12:59:52;;;;;;;;;;;;;;;22.74;48.11;100465.81;7392706;19;1466;-40